RJGGRJFM

Guest
Details From RJGG - CHUBU CENTRAIR INTL
To RJFM - MIYAZAKI
Flight Number -
Tags generated
Created
Modified
Stats Distance 323 nm / 598 km
Max Altitude 34,000 ft / 10,363 m
Waypoints 3
Social Downloads 0
Likes 0
Share VATSIM

Download

Looking for another format? Having issues loading an existing format? Contact us
Advertisement - Login to hide

Notes

Basic altitude profile: - Ascent Rate: 2500ft/min - Ascent Speed: 250kts - Cruise Altitude: 35000ft - Cruise Speed: 420kts - Descent Rate: 1500ft/min - Descent Speed: 250kts Options: - Use NATs: yes - Use PACOTS: yes - Use low airways: no - Use high airways: no

Route

RJGG 3400N13500E RJFM

ID Type Via Altitude Latitude Longitude Leg Dist Tot Dist Heading (true) Name
O RJGG APT - 0 ft / 0 m 34.85841˚ 136.80541˚ - 0 nm - CHUBU CENTRAIR INTL
3400N13500E LATLON - 34,000 ft / 10,363 m 34.00000˚ 135.00000˚ 103 nm 103 nm 241° / 240° -
O RJFM APT - 0 ft / 0 m 31.87713˚ 131.44845˚ 219 nm 322 nm 236° / 234° MIYAZAKI

Altitude Profile

Advertisement - Login to hide

Weather


0- 5 10 15 20 25 30 35+ Temperature / ° C

Clouds and Precipitation
Forecast for 2017-12-13 12:00 UTC. Updated 37 minutes ago

Ground ~20,000 ft ~40,000 ft Winds

RJGG

Details ICAO RJGG (NGO)
Name CHUBU CENTRAIR INTL
Region Japan
Timezone Asia/Tokyo (UTC+9.0)
Stats Elevation 15 ft / 5 m (AMSL)
Location 34.858414° 136.805408°
Runways 1
Magnetic Variation 7.580° W

METAR

RJGG 130730Z 31021KT 9999 FEW015 07/01 Q1017 NOSIG

Decode

TAF

TAF RJGG 130505Z 1306/1412 32020KT 9999 FEW020 SCT040

Decode

Departure Runways

ID Width Length Bearing (true) Bearing (mag) Surface Threshold Offset Overrun Length
18 197 ft / 60 m 11,511 ft / 3,509 m 168.81° 176.39° Asphalt 0 ft / 0 m 197 ft / 60 m
36 197 ft / 60 m 11,511 ft / 3,509 m 348.81° 356.39° Asphalt 0 ft / 0 m 197 ft / 60 m

RJFM

Details ICAO RJFM (KMI)
Name MIYAZAKI
Region Japan
Timezone Asia/Tokyo (UTC+9.0)
Stats Elevation 20 ft / 6 m (AMSL)
Location 31.877128° 131.448447°
Runways 1
Magnetic Variation 6.932° W

METAR

RJFM 130700Z 25007KT 210V290 9999 FEW030 SCT/// 11/M06 Q1021

Decode

TAF

TAF RJFM 130516Z 1306/1412 20008KT 9999 FEW040 BECMG 1306/1308 28013KT BECMG 1400/1403 01010KT BECMG 1409/1412 31007KT

Decode

Destination Runways

ID Width Length Bearing (true) Bearing (mag) Surface Threshold Offset Overrun Length
09 150 ft / 46 m 8,187 ft / 2,496 m 85.16° 92.09° Asphalt 0 ft / 0 m 200 ft / 61 m
27 150 ft / 46 m 8,187 ft / 2,496 m 265.18° 272.11° Asphalt 0 ft / 0 m 200 ft / 61 m

Approach Navaids

Runway Type Ident Frequency Range Bearing (true) Bearing (mag) Slope Elevation
27 Localiser IMZ 108.90 MHz 18 nm / 33 km 265.16° 272.10° - 54 ft / 16 m (AMSL)
27 Glidescope IMZ 108.90 MHz 10 nm / 19 km 265.17° 272.10° 3.00° 54 ft / 16 m (AMSL)
27 DME IMZ 108.90 MHz 18 nm / 33 km - - - 34 ft / 10 m (AMSL)

Popular Alternatives